createdAt,value
2018-04-13T00:02:18.645Z,11.50
2018-04-13T00:04:46.097Z,11.50
2018-04-13T00:07:13.548Z,11.60
2018-04-13T00:09:41.006Z,11.60
2018-04-13T00:12:08.463Z,11.60
2018-04-13T00:14:35.926Z,11.50
2018-04-13T00:17:03.377Z,11.40
2018-04-13T00:19:30.826Z,11.40
2018-04-13T00:21:58.274Z,11.50
2018-04-13T00:24:25.730Z,11.40
2018-04-13T00:26:53.189Z,11.50
2018-04-13T00:29:20.638Z,11.50
2018-04-13T00:31:49.313Z,11.50
2018-04-13T00:34:17.526Z,11.50
2018-04-13T00:36:45.658Z,11.50
2018-04-13T00:39:13.885Z,11.60
2018-04-13T00:41:41.326Z,11.60
2018-04-13T00:44:08.916Z,11.60
2018-04-13T00:46:36.357Z,11.60
2018-04-13T00:49:03.801Z,11.70
2018-04-13T00:51:31.277Z,11.70
2018-04-13T00:53:58.735Z,11.60
2018-04-13T00:56:26.172Z,11.60
2018-04-13T00:58:53.613Z,11.70
2018-04-13T01:01:21.066Z,11.70
2018-04-13T01:03:48.510Z,11.70
2018-04-13T01:06:16.741Z,11.60
2018-04-13T01:08:44.244Z,11.60
2018-04-13T01:11:11.637Z,11.70
2018-04-13T01:13:39.085Z,11.60
2018-04-13T01:16:06.542Z,11.60
2018-04-13T01:18:33.986Z,11.50
2018-04-13T01:21:01.438Z,11.60
2018-04-13T01:23:29.043Z,11.60
2018-04-13T01:25:56.494Z,11.60
2018-04-13T01:28:23.936Z,11.60
2018-04-13T01:30:51.396Z,11.60
2018-04-13T01:33:18.890Z,11.40
2018-04-13T01:35:46.318Z,11.20
2018-04-13T01:38:13.782Z,11.10
2018-04-13T01:40:41.237Z,11.00
2018-04-13T01:43:08.697Z,10.90
2018-04-13T01:45:36.146Z,10.80
2018-04-13T01:48:03.622Z,10.70
2018-04-13T01:50:31.061Z,10.60
2018-04-13T01:52:58.509Z,10.60
2018-04-13T01:55:25.984Z,10.50
2018-04-13T01:57:53.431Z,10.50
2018-04-13T02:00:20.886Z,10.40
2018-04-13T02:02:48.341Z,10.40
2018-04-13T02:05:15.780Z,10.30
2018-04-13T02:07:43.945Z,10.30
2018-04-13T02:10:11.393Z,10.30
2018-04-13T02:12:39.622Z,10.10
2018-04-13T02:15:07.062Z,10.10
2018-04-13T02:17:34.520Z,10.10
2018-04-13T02:20:02.030Z,10.00
2018-04-13T02:22:30.918Z,9.90
2018-04-13T02:24:59.130Z,9.90
2018-04-13T02:27:26.621Z,9.90
2018-04-13T02:29:54.849Z,10.00
2018-04-13T02:32:22.298Z,10.00
2018-04-13T02:34:49.746Z,10.00
2018-04-13T02:37:17.966Z,10.00
2018-04-13T02:39:45.406Z,10.00
2018-04-13T02:42:12.986Z,9.90
2018-04-13T02:44:40.434Z,9.80
2018-04-13T02:47:07.879Z,10.00
2018-04-13T02:49:35.344Z,10.10
2018-04-13T02:52:03.103Z,10.10
2018-04-13T02:54:30.551Z,10.30
2018-04-13T02:56:58.007Z,10.40
2018-04-13T02:59:25.997Z,10.60
2018-04-13T03:01:53.447Z,10.70
2018-04-13T03:04:21.362Z,10.80
2018-04-13T03:06:48.810Z,11.00
2018-04-13T03:09:16.277Z,11.10
2018-04-13T03:11:44.497Z,11.00
2018-04-13T03:14:11.978Z,11.00
2018-04-13T03:16:39.857Z,11.00
2018-04-13T03:19:08.818Z,11.10
2018-04-13T03:21:36.257Z,11.10
2018-04-13T03:24:03.720Z,11.20
2018-04-13T03:26:31.184Z,11.40
2018-04-13T03:28:58.635Z,11.40
2018-04-13T03:31:26.093Z,11.50
2018-04-13T03:33:53.542Z,11.60
2018-04-13T03:36:21.817Z,11.60
2018-04-13T03:38:49.262Z,11.70
2018-04-13T03:41:17.494Z,11.50
2018-04-13T03:43:44.957Z,11.50
2018-04-13T03:46:12.410Z,11.50
2018-04-13T03:48:41.389Z,11.50
2018-04-13T03:51:08.834Z,11.50
2018-04-13T03:53:36.298Z,11.50
2018-04-13T03:56:03.745Z,11.40
2018-04-13T03:58:31.200Z,11.40
2018-04-13T04:00:59.497Z,11.40
2018-04-13T04:03:26.946Z,11.50
2018-04-13T04:05:54.410Z,11.50
2018-04-13T04:08:21.871Z,11.50
2018-04-13T04:10:49.321Z,11.50
2018-04-13T04:13:16.777Z,11.50
2018-04-13T04:15:45.649Z,11.40
2018-04-13T04:18:13.125Z,11.40
2018-04-13T04:20:52.553Z,11.40
2018-04-13T04:23:31.897Z,11.40
2018-04-13T04:26:11.346Z,11.40
2018-04-13T04:28:38.798Z,11.40
2018-04-13T04:31:06.253Z,11.50
2018-04-13T04:33:33.719Z,11.50
2018-04-13T04:36:01.178Z,11.50
2018-04-13T04:38:28.625Z,11.50
2018-04-13T04:40:56.082Z,11.60
2018-04-13T04:43:23.542Z,11.70
2018-04-13T04:45:51.021Z,11.60
2018-04-13T04:48:18.486Z,11.60
2018-04-13T04:50:46.702Z,11.70
2018-04-13T04:53:14.164Z,11.70
2018-04-13T04:55:41.617Z,11.60
2018-04-13T04:58:09.090Z,11.70
2018-04-13T05:00:36.550Z,11.60
2018-04-13T05:03:04.029Z,11.60
2018-04-13T05:05:33.450Z,11.60
2018-04-13T05:08:00.889Z,11.60
2018-04-13T05:10:28.346Z,11.60
2018-04-13T05:12:57.607Z,11.70
2018-04-13T05:15:25.066Z,11.70
2018-04-13T05:17:52.522Z,11.80
2018-04-13T05:20:19.979Z,11.80
2018-04-13T05:22:47.443Z,11.80
2018-04-13T05:25:14.893Z,11.80
2018-04-13T05:27:42.349Z,11.90
2018-04-13T05:30:09.814Z,12.00
2018-04-13T05:32:37.271Z,12.10
2018-04-13T05:35:04.725Z,12.30
2018-04-13T05:37:32.356Z,12.30
2018-04-13T05:40:00.585Z,12.50
2018-04-13T05:42:28.041Z,12.40
2018-04-13T05:44:55.494Z,12.50
2018-04-13T05:47:23.858Z,12.60
2018-04-13T05:49:51.317Z,12.60
2018-04-13T05:52:18.790Z,12.70
2018-04-13T05:54:46.265Z,12.80
2018-04-13T05:57:14.924Z,12.80
2018-04-13T05:59:42.366Z,12.70
2018-04-13T06:02:09.820Z,12.80
2018-04-13T06:04:37.276Z,12.80
2018-04-13T06:07:04.726Z,12.90
2018-04-13T06:09:32.189Z,12.90
2018-04-13T06:11:59.640Z,13.00
2018-04-13T06:14:27.573Z,12.70
2018-04-13T06:16:55.797Z,11.70
2018-04-13T06:19:23.249Z,11.70
2018-04-13T06:21:50.705Z,11.40
2018-04-13T06:24:18.181Z,11.00
2018-04-13T06:26:45.635Z,10.80
2018-04-13T06:29:13.081Z,10.70
2018-04-13T06:31:40.530Z,10.70
2018-04-13T06:34:07.989Z,10.70
2018-04-13T06:36:35.438Z,10.80
2018-04-13T06:39:02.969Z,10.90
2018-04-13T06:41:31.189Z,10.80
2018-04-13T06:43:58.658Z,10.80
2018-04-13T06:46:26.107Z,10.80
2018-04-13T06:48:53.597Z,10.80
2018-04-13T06:51:21.030Z,10.70
2018-04-13T06:53:48.498Z,10.30
2018-04-13T06:56:15.945Z,10.00
2018-04-13T06:58:43.399Z,9.90
2018-04-13T07:01:10.850Z,9.90
2018-04-13T07:03:38.631Z,9.80
2018-04-13T07:06:06.088Z,9.70
2018-04-13T07:08:33.527Z,9.60
2018-04-13T07:11:00.982Z,9.50
2018-04-13T07:13:28.430Z,9.40
2018-04-13T07:15:55.896Z,9.30
2018-04-13T07:18:23.343Z,9.40
2018-04-13T07:20:50.786Z,9.50
2018-04-13T07:23:18.237Z,9.70
2018-04-13T07:25:45.704Z,10.00
2018-04-13T07:28:13.154Z,10.30
2018-04-13T07:30:40.626Z,10.40
2018-04-13T07:33:08.082Z,10.40
2018-04-13T07:35:35.543Z,10.50
2018-04-13T07:38:02.993Z,10.50
2018-04-13T07:40:30.446Z,10.60
2018-04-13T07:42:57.923Z,10.70
2018-04-13T07:45:25.759Z,10.70
2018-04-13T07:47:53.217Z,10.70
2018-04-13T07:50:21.155Z,10.70
2018-04-13T07:52:48.625Z,10.70
2018-04-13T07:55:16.845Z,10.60
2018-04-13T07:57:44.293Z,10.60
2018-04-13T08:00:11.770Z,10.60
2018-04-13T08:02:39.227Z,10.70
2018-04-13T08:05:06.685Z,10.80
2018-04-13T08:07:34.134Z,10.80
2018-04-13T08:10:01.610Z,10.90
2018-04-13T08:12:29.070Z,10.90
2018-04-13T08:14:57.289Z,10.80
2018-04-13T08:17:24.778Z,10.80
2018-04-13T08:19:52.257Z,10.90
2018-04-13T08:22:19.705Z,10.90
2018-04-13T08:24:47.163Z,10.90
2018-04-13T08:27:14.613Z,11.00
2018-04-13T08:29:42.092Z,11.00
2018-04-13T08:32:09.512Z,11.10
2018-04-13T08:34:36.962Z,11.10
2018-04-13T08:37:04.414Z,11.10
2018-04-13T08:39:31.889Z,11.10
2018-04-13T08:41:59.333Z,10.90
2018-04-13T08:44:26.790Z,10.80
2018-04-13T08:46:54.249Z,10.90
2018-04-13T08:49:21.699Z,11.00
2018-04-13T08:51:49.138Z,10.90
2018-04-13T08:54:16.598Z,10.80
2018-04-13T08:56:44.047Z,10.80
2018-04-13T08:59:12.291Z,10.90
2018-04-13T09:01:39.721Z,10.90
2018-04-13T09:04:07.162Z,10.90
2018-04-13T09:06:34.661Z,11.00
2018-04-13T09:09:02.073Z,11.00
2018-04-13T09:11:29.533Z,11.10
2018-04-13T09:13:56.987Z,11.20
2018-04-13T09:16:24.574Z,11.20
2018-04-13T09:18:52.022Z,11.30
2018-04-13T09:21:19.474Z,11.20
2018-04-13T09:23:46.934Z,11.10
2018-04-13T09:26:14.380Z,11.00
2018-04-13T09:28:41.835Z,11.00
2018-04-13T09:31:09.281Z,10.80
2018-04-13T09:33:36.743Z,10.70
2018-04-13T09:36:04.174Z,10.60
2018-04-13T09:38:32.379Z,10.70
2018-04-13T09:40:59.841Z,10.70
2018-04-13T09:43:27.279Z,10.70
2018-04-13T09:45:54.751Z,10.80
2018-04-13T09:48:22.990Z,11.00
2018-04-13T09:50:51.334Z,10.90
2018-04-13T09:53:18.774Z,10.90
2018-04-13T09:55:46.221Z,11.10
2018-04-13T09:58:13.701Z,11.20
2018-04-13T10:00:41.146Z,11.30
2018-04-13T10:03:14.365Z,11.40
2018-04-13T10:05:41.891Z,11.40
2018-04-13T10:08:09.372Z,11.40
2018-04-13T10:10:36.813Z,11.50
2018-04-13T10:13:04.251Z,11.50
2018-04-13T10:15:31.701Z,11.40
2018-04-13T10:17:59.165Z,11.50
2018-04-13T10:20:26.598Z,11.30
2018-04-13T10:22:54.833Z,11.20
2018-04-13T10:25:22.265Z,11.20
2018-04-13T10:27:49.710Z,11.10
2018-04-13T10:30:17.169Z,11.20
2018-04-13T10:32:44.634Z,11.10
2018-04-13T10:35:12.081Z,11.10
2018-04-13T10:37:39.623Z,11.00
2018-04-13T10:40:07.075Z,11.00
2018-04-13T10:42:34.517Z,11.00
2018-04-13T10:45:04.330Z,11.20
2018-04-13T10:47:32.543Z,11.10
2018-04-13T10:50:00.001Z,11.10
2018-04-13T10:52:27.443Z,11.10
2018-04-13T10:54:54.897Z,11.20
2018-04-13T10:57:22.370Z,11.10
2018-04-13T10:59:49.826Z,11.00
2018-04-13T11:02:17.285Z,10.80
2018-04-13T11:04:44.735Z,10.70
2018-04-13T11:07:12.202Z,10.60
2018-04-13T11:09:39.647Z,10.50
2018-04-13T11:12:07.106Z,10.40
2018-04-13T11:14:34.571Z,10.20
2018-04-13T11:17:02.053Z,10.30
2018-04-13T11:19:29.505Z,10.20
2018-04-13T11:21:56.950Z,10.20
2018-04-13T11:24:24.417Z,10.10
2018-04-13T11:26:51.851Z,10.10
2018-04-13T11:29:19.724Z,10.10
2018-04-13T11:31:47.175Z,10.10
2018-04-13T11:34:14.633Z,10.00
2018-04-13T11:36:42.089Z,10.00
2018-04-13T11:39:09.562Z,10.10
2018-04-13T11:41:37.891Z,10.10
2018-04-13T11:44:06.103Z,10.00
2018-04-13T11:46:33.554Z,10.00
2018-04-13T11:49:00.994Z,10.00
2018-04-13T11:51:28.467Z,10.00
2018-04-13T11:53:55.949Z,10.00
2018-04-13T11:56:23.385Z,9.90
2018-04-13T11:58:50.826Z,9.80
2018-04-13T12:01:18.282Z,9.80
2018-04-13T12:03:45.727Z,9.80
2018-04-13T12:06:13.934Z,9.70
2018-04-13T12:08:41.374Z,9.70
2018-04-13T12:11:08.814Z,9.80
2018-04-13T12:13:37.031Z,9.90
2018-04-13T12:16:04.473Z,9.90
2018-04-13T12:18:31.917Z,9.90
2018-04-13T12:20:59.413Z,10.00
2018-04-13T12:23:26.882Z,10.00
2018-04-13T12:25:54.321Z,10.20
2018-04-13T12:28:21.761Z,10.20
2018-04-13T12:30:50.065Z,10.20
2018-04-13T12:33:17.507Z,10.20
2018-04-13T12:35:44.954Z,10.20
2018-04-13T12:38:12.416Z,10.10
2018-04-13T12:40:39.874Z,10.20
2018-04-13T12:43:07.327Z,10.10
2018-04-13T12:45:34.771Z,10.20
2018-04-13T12:48:02.672Z,10.20
2018-04-13T12:50:30.126Z,10.20
2018-04-13T12:52:58.112Z,10.30
2018-04-13T12:55:25.560Z,10.40
2018-04-13T12:57:53.722Z,10.60
2018-04-13T13:00:21.161Z,10.60
2018-04-13T13:02:48.619Z,10.70
2018-04-13T13:05:16.186Z,10.60
2018-04-13T13:07:43.641Z,10.70
2018-04-13T13:10:11.089Z,10.90
2018-04-13T13:12:38.557Z,11.00
2018-04-13T13:15:06.003Z,11.00
2018-04-13T13:17:33.457Z,11.10
2018-04-13T13:20:00.917Z,11.20
2018-04-13T13:22:28.370Z,11.20
2018-04-13T13:24:55.838Z,11.20
2018-04-13T13:27:23.298Z,11.20
2018-04-13T13:29:50.741Z,11.00
2018-04-13T13:32:18.207Z,10.90
2018-04-13T13:34:45.659Z,10.60
2018-04-13T13:42:55.578Z,10.20
2018-04-13T13:45:23.026Z,10.20
2018-04-13T13:47:50.526Z,10.20
2018-04-13T13:50:18.757Z,10.20
2018-04-13T13:52:46.210Z,10.20
2018-04-13T13:55:13.660Z,10.20
2018-04-13T13:57:41.103Z,10.20
2018-04-13T14:00:08.541Z,10.20
2018-04-13T14:02:36.029Z,10.10
2018-04-13T14:05:03.473Z,10.10
2018-04-13T14:07:30.928Z,10.10
2018-04-13T14:09:58.376Z,10.10
2018-04-13T14:12:25.818Z,10.20
2018-04-13T14:14:54.056Z,10.20
2018-04-13T14:17:21.490Z,10.20
2018-04-13T14:19:48.932Z,10.30
2018-04-13T14:22:16.394Z,10.30
2018-04-13T14:24:43.833Z,10.30
2018-04-13T14:27:11.300Z,10.30
2018-04-13T14:29:38.736Z,10.50
2018-04-13T14:32:06.938Z,10.30
2018-04-13T14:34:34.407Z,10.20
2018-04-13T14:37:02.693Z,10.20
2018-04-13T14:39:30.162Z,10.10
2018-04-13T14:41:57.606Z,10.10
2018-04-13T14:44:25.045Z,10.20
2018-04-13T14:46:52.838Z,10.20
2018-04-13T14:49:20.301Z,10.20
2018-04-13T14:51:48.678Z,10.20
2018-04-13T14:54:17.638Z,10.10
2018-04-13T14:56:45.086Z,10.20
2018-04-13T14:59:12.546Z,10.20
2018-04-13T15:01:39.990Z,10.10
2018-04-13T15:04:07.446Z,10.20
2018-04-13T15:06:34.894Z,10.20
2018-04-13T15:09:02.965Z,10.20
2018-04-13T15:11:30.427Z,10.20
2018-04-13T15:13:57.874Z,10.20
2018-04-13T15:16:26.110Z,10.10
2018-04-13T15:18:54.330Z,10.20
2018-04-13T15:21:22.535Z,10.20
2018-04-13T15:23:50.315Z,10.20
2018-04-13T15:26:17.758Z,10.20
2018-04-13T15:28:45.890Z,10.20
2018-04-13T15:31:14.118Z,10.20
2018-04-13T15:33:41.574Z,10.20
2018-04-13T15:36:09.018Z,10.10
2018-04-13T15:38:36.489Z,10.10
2018-04-13T15:41:04.570Z,10.10
2018-04-13T15:43:33.526Z,10.00
2018-04-13T15:46:00.986Z,10.10
2018-04-13T15:48:28.422Z,10.10
2018-04-13T15:50:55.882Z,10.20
2018-04-13T15:53:23.814Z,10.20
2018-04-13T15:55:51.293Z,10.20
2018-04-13T15:58:19.535Z,10.10
2018-04-13T16:00:48.733Z,10.00
2018-04-13T16:03:16.193Z,10.00
2018-04-13T16:05:44.406Z,9.90
2018-04-13T16:08:12.739Z,9.90
2018-04-13T16:10:40.173Z,9.90
2018-04-13T16:13:07.613Z,9.90
2018-04-13T16:15:35.073Z,9.90
2018-04-13T16:18:02.502Z,10.00
2018-04-13T16:20:30.709Z,10.00
2018-04-13T16:22:58.498Z,10.00
2018-04-13T16:25:25.945Z,9.90
2018-04-13T16:27:53.384Z,9.90
2018-04-13T16:30:20.846Z,9.90
2018-04-13T16:32:48.286Z,9.90
2018-04-13T16:35:16.006Z,9.90
2018-04-13T16:37:43.443Z,9.90
2018-04-13T16:40:10.889Z,9.90
2018-04-13T16:42:38.632Z,9.90
2018-04-13T16:45:06.072Z,9.90
2018-04-13T16:47:34.269Z,9.90
2018-04-13T16:50:01.718Z,9.90
2018-04-13T16:52:29.187Z,10.00
2018-04-13T16:54:57.394Z,10.00
2018-04-13T16:57:24.835Z,9.90
2018-04-13T16:59:52.325Z,10.00
2018-04-13T17:02:20.381Z,10.00
2018-04-13T17:04:48.585Z,10.00
2018-04-13T17:07:16.792Z,9.90
2018-04-13T17:09:44.590Z,9.90
2018-04-13T17:12:12.029Z,10.00
2018-04-13T17:14:39.472Z,10.00
2018-04-13T17:17:06.929Z,10.00
2018-04-13T17:19:34.767Z,9.90
2018-04-13T17:22:03.032Z,9.90
2018-04-13T17:24:31.241Z,9.90
2018-04-13T17:26:58.674Z,9.90
2018-04-13T17:29:26.918Z,9.90
2018-04-13T17:31:55.864Z,9.90
2018-04-13T17:34:23.653Z,9.90
2018-04-13T17:36:51.093Z,9.90
2018-04-13T17:39:18.536Z,9.90
2018-04-13T17:41:45.982Z,9.90
2018-04-13T17:44:13.422Z,9.90
2018-04-13T17:46:41.627Z,9.90
2018-04-13T17:49:09.070Z,9.80
2018-04-13T17:51:36.502Z,9.90
2018-04-13T17:54:04.722Z,9.90
2018-04-13T17:56:32.166Z,9.90
2018-04-13T17:58:59.612Z,10.00
2018-04-13T18:01:27.069Z,10.00
2018-04-13T18:03:54.507Z,10.10
2018-04-13T18:06:23.041Z,10.10
2018-04-13T18:08:50.490Z,10.10
2018-04-13T18:11:17.937Z,10.10
2018-04-13T18:13:45.629Z,10.10
2018-04-13T18:16:13.191Z,10.10
2018-04-13T18:18:40.629Z,10.10
2018-04-13T18:21:08.085Z,10.00
2018-04-13T18:23:35.543Z,10.00
2018-04-13T18:26:03.018Z,10.00
2018-04-13T18:28:30.457Z,9.90
2018-04-13T18:30:57.906Z,9.80
2018-04-13T18:33:25.399Z,9.90
2018-04-13T18:35:54.357Z,10.00
2018-04-13T18:38:21.811Z,10.00
2018-04-13T18:40:49.252Z,10.10
2018-04-13T18:43:16.705Z,10.10
2018-04-13T18:45:44.148Z,10.20
2018-04-13T18:48:12.367Z,9.90
2018-04-13T18:50:39.813Z,9.90
2018-04-13T18:53:07.277Z,9.80
2018-04-13T18:55:34.723Z,9.70
2018-04-13T18:58:02.788Z,9.70
2018-04-13T19:00:30.061Z,9.70
2018-04-13T19:02:57.526Z,9.70
2018-04-13T19:05:24.969Z,9.90
2018-04-13T19:07:52.411Z,10.00
2018-04-13T19:10:19.901Z,10.00
2018-04-13T19:12:47.355Z,10.00
2018-04-13T19:15:14.810Z,9.90
2018-04-13T19:17:42.261Z,9.80
2018-04-13T19:20:09.698Z,9.70
2018-04-13T19:22:37.155Z,9.70
2018-04-13T19:25:04.598Z,9.60
2018-04-13T19:27:32.819Z,10.10
2018-04-13T19:30:00.253Z,10.00
2018-04-13T19:32:27.755Z,10.10
2018-04-13T19:34:55.202Z,9.80
2018-04-13T19:37:22.639Z,9.60
2018-04-13T19:39:50.114Z,9.40
2018-04-13T19:42:17.918Z,9.40
2018-04-13T19:44:46.150Z,9.30
2018-04-13T19:47:13.616Z,9.30
2018-04-13T19:49:41.061Z,9.30
2018-04-13T19:52:08.495Z,9.30
2018-04-13T19:54:36.894Z,9.40
2018-04-13T19:57:04.366Z,9.60
2018-04-13T19:59:32.570Z,9.70
2018-04-13T20:02:00.792Z,9.80
2018-04-13T20:04:28.235Z,9.80
2018-04-13T20:06:55.674Z,9.80
2018-04-13T20:09:23.702Z,9.80
2018-04-13T20:11:52.643Z,9.90
2018-04-13T20:14:24.957Z,9.90
2018-04-13T20:16:52.398Z,9.90
2018-04-13T20:19:19.841Z,9.90
2018-04-13T20:21:47.289Z,10.00
2018-04-13T20:24:14.730Z,10.10
2018-04-13T20:26:42.230Z,10.10
2018-04-13T20:29:10.226Z,10.10
2018-04-13T20:31:37.673Z,10.20
2018-04-13T20:34:06.625Z,10.30
2018-04-13T20:36:34.082Z,10.30
2018-04-13T20:39:01.551Z,10.30
2018-04-13T20:41:29.016Z,10.30
2018-04-13T20:43:56.458Z,10.30
2018-04-13T20:46:23.911Z,10.20
2018-04-13T20:48:51.789Z,10.30
2018-04-13T20:51:19.246Z,10.30
2018-04-13T20:53:47.128Z,10.20
2018-04-13T20:56:14.581Z,10.20
2018-04-13T20:58:42.014Z,10.20
2018-04-13T21:01:09.766Z,10.20
2018-04-13T21:03:37.973Z,10.20
2018-04-13T21:06:05.426Z,10.20
2018-04-13T21:08:32.886Z,10.30
2018-04-13T21:11:00.340Z,10.20
2018-04-13T21:13:27.779Z,10.20
2018-04-13T21:15:55.238Z,10.20
2018-04-13T21:18:22.693Z,10.30
2018-04-13T21:20:50.162Z,10.30
2018-04-13T21:23:17.614Z,10.20
2018-04-13T21:25:45.042Z,10.20
2018-04-13T21:28:12.500Z,10.30
2018-04-13T21:30:40.706Z,10.30
2018-04-13T21:33:08.150Z,10.30
2018-04-13T21:35:35.630Z,10.30
2018-04-13T21:38:03.072Z,10.40
2018-04-13T21:40:30.525Z,10.40
2018-04-13T21:42:58.438Z,10.50
2018-04-13T21:45:26.667Z,10.70
2018-04-13T21:47:54.154Z,10.30
2018-04-13T21:50:21.603Z,10.80
2018-04-13T21:52:49.062Z,10.80
2018-04-13T21:55:16.526Z,10.90
2018-04-13T21:57:43.986Z,10.80
2018-04-13T22:00:11.429Z,10.40
2018-04-13T22:02:39.422Z,10.40
2018-04-13T22:05:07.674Z,10.20
2018-04-13T22:07:35.126Z,10.20
2018-04-13T22:10:02.586Z,10.10
2018-04-13T22:12:51.666Z,10.00
2018-04-13T22:15:26.137Z,9.80
2018-04-13T22:17:53.572Z,9.80
2018-04-13T22:20:21.784Z,9.60
2018-04-13T22:22:49.259Z,9.60
2018-04-13T22:25:16.706Z,9.50
2018-04-13T22:27:44.154Z,9.50
2018-04-13T22:30:11.634Z,9.50
2018-04-13T22:32:39.095Z,9.50
2018-04-13T22:35:06.563Z,9.40
2018-04-13T22:37:33.998Z,9.40
2018-04-13T22:40:01.440Z,9.50
2018-04-13T22:42:28.897Z,9.70
2018-04-13T22:44:56.329Z,9.80
2018-04-13T22:47:24.551Z,9.80
2018-04-13T22:49:52.535Z,9.80
2018-04-13T22:52:19.969Z,9.80
2018-04-13T22:54:47.731Z,9.80
2018-04-13T22:57:15.175Z,10.00
2018-04-13T22:59:42.631Z,10.10
2018-04-13T23:02:10.076Z,10.10
2018-04-13T23:04:37.833Z,10.10
2018-04-13T23:07:05.282Z,10.00
2018-04-13T23:09:33.495Z,9.90
2018-04-13T23:12:00.956Z,9.90
2018-04-13T23:14:28.397Z,9.80
2018-04-13T23:16:55.846Z,9.70
2018-04-13T23:19:23.294Z,9.70
2018-04-13T23:21:50.737Z,9.50
2018-04-13T23:24:19.078Z,9.40
2018-04-13T23:26:46.518Z,9.40
2018-04-13T23:29:13.962Z,9.50
2018-04-13T23:31:41.833Z,9.60
2018-04-13T23:34:09.282Z,9.70
2018-04-13T23:36:36.750Z,9.70
2018-04-13T23:39:04.969Z,9.80
2018-04-13T23:41:33.190Z,9.90
2018-04-13T23:44:00.645Z,9.90
2018-04-13T23:46:28.090Z,9.90
2018-04-13T23:48:55.541Z,10.00
2018-04-13T23:51:22.990Z,10.00
2018-04-13T23:53:51.212Z,10.00
2018-04-13T23:56:18.647Z,10.00
2018-04-13T23:58:46.162Z,10.00
